Time;durP1;ratioP1;P1;durP2;ratioP2;P2;SDS_P1;SDS_P2;PMS_P1;PMS_P2;Temp;Humidity;BMP_temperature;BMP_pressure;BME280_temperature;BME280_humidity;BME280_pressure;Samples;Min_cycle;Max_cycle;Signal;HPM_P1;HPM_P2
2023/08/11 00:02:00;;;;;;;32.57;30.07;;;;;;;;;;5077949;28;20428;-77
2023/08/11 00:04:27;;;;;;;29.33;27.13;;;;;;;;;;5076541;28;20423;-79
2023/08/11 00:06:55;;;;;;;30.77;28.73;;;;;;;;;;5075420;28;21051;-79
2023/08/11 00:09:26;;;;;;;31.13;29.10;;;;;;;;;;5076989;28;20509;-79
2023/08/11 00:11:53;;;;;;;25.70;24.10;;;;;;;;;;5078198;28;20433;-80
2023/08/11 00:14:20;;;;;;;29.20;27.50;;;;;;;;;;5078316;28;20453;-81
2023/08/11 00:16:47;;;;;;;30.80;29.03;;;;;;;;;;5085069;28;20452;-79
2023/08/11 00:19:14;;;;;;;26.27;24.63;;;;;;;;;;5078377;28;20423;-79
2023/08/11 00:21:42;;;;;;;24.90;23.33;;;;;;;;;;5077691;28;20436;-79
2023/08/11 00:24:09;;;;;;;26.00;24.40;;;;;;;;;;5078004;28;20787;-78
2023/08/11 00:26:38;;;;;;;28.80;27.03;;;;;;;;;;5077353;28;20789;-79
2023/08/11 00:29:05;;;;;;;27.23;25.53;;;;;;;;;;5077771;28;20457;-78
2023/08/11 00:31:32;;;;;;;25.60;24.10;;;;;;;;;;5075852;28;20459;-79
2023/08/11 00:33:59;;;;;;;25.03;23.63;;;;;;;;;;5075571;28;20426;-80
2023/08/11 00:36:26;;;;;;;23.80;22.27;;;;;;;;;;5075709;28;20444;-79
2023/08/11 00:39:00;;;;;;;25.67;24.27;;;;;;;;;;5075372;28;20442;-79
2023/08/11 00:41:27;;;;;;;25.60;23.60;;;;;;;;;;5075766;28;20739;-79
2023/08/11 00:43:55;;;;;;;24.63;22.97;;;;;;;;;;5076448;28;20981;-79
2023/08/11 00:46:24;;;;;;;26.17;24.33;;;;;;;;;;5077565;28;20486;-79
2023/08/11 00:48:51;;;;;;;25.10;23.60;;;;;;;;;;5078179;28;20485;-79
2023/08/11 00:51:19;;;;;;;25.87;24.10;;;;;;;;;;5077608;28;20936;-79
2023/08/11 00:53:46;;;;;;;23.23;21.77;;;;;;;;;;5079122;28;20429;-80
2023/08/11 00:56:16;;;;;;;24.70;23.17;;;;;;;;;;5077976;28;20447;-79
2023/08/11 00:58:43;;;;;;;24.07;22.47;;;;;;;;;;5081144;28;20457;-78
2023/08/11 01:01:12;;;;;;;24.80;23.20;;;;;;;;;;5077197;28;20456;-79
2023/08/11 01:03:40;;;;;;;24.77;23.33;;;;;;;;;;5075050;28;20457;-79
2023/08/11 01:06:10;;;;;;;26.70;24.90;;;;;;;;;;5075771;28;20559;-79
2023/08/11 01:08:39;;;;;;;27.77;26.13;;;;;;;;;;5079146;28;20461;-79
2023/08/11 01:11:09;;;;;;;28.03;26.13;;;;;;;;;;5076819;28;20517;-78
2023/08/11 01:13:41;;;;;;;27.03;25.33;;;;;;;;;;5074810;28;20433;-79
2023/08/11 01:16:09;;;;;;;26.83;25.20;;;;;;;;;;5083015;28;20535;-79
2023/08/11 01:18:38;;;;;;;25.27;23.77;;;;;;;;;;5075818;28;20441;-78
2023/08/11 01:21:11;;;;;;;27.10;25.57;;;;;;;;;;5077516;28;20759;-79
2023/08/11 01:23:40;;;;;;;26.77;25.20;;;;;;;;;;5075792;28;20457;-78
2023/08/11 01:26:07;;;;;;;26.50;24.90;;;;;;;;;;5076501;28;20877;-79
2023/08/11 01:28:35;;;;;;;26.30;24.80;;;;;;;;;;5075551;28;20449;-80
2023/08/11 01:31:03;;;;;;;25.93;24.47;;;;;;;;;;5076048;28;20449;-81
2023/08/11 01:33:30;;;;;;;25.73;24.30;;;;;;;;;;5078364;28;20450;-79
2023/08/11 01:35:57;;;;;;;27.33;25.30;;;;;;;;;;5075962;28;20481;-79
2023/08/11 01:38:24;;;;;;;25.33;23.83;;;;;;;;;;5075638;28;20449;-78
2023/08/11 01:40:52;;;;;;;27.40;25.50;;;;;;;;;;5076847;28;20427;-78
2023/08/11 01:43:20;;;;;;;27.00;25.20;;;;;;;;;;5076282;28;20446;-79
2023/08/11 01:45:48;;;;;;;69.63;37.67;;;;;;;;;;5076971;28;20482;-79
2023/08/11 01:48:15;;;;;;;45.97;33.23;;;;;;;;;;5075230;28;20453;-79
2023/08/11 01:50:43;;;;;;;61.30;40.13;;;;;;;;;;5075783;28;20477;-79
2023/08/11 01:53:10;;;;;;;47.43;36.97;;;;;;;;;;5074091;28;20437;-79
2023/08/11 01:55:38;;;;;;;49.23;36.63;;;;;;;;;;5074303;28;20473;-79
2023/08/11 01:58:07;;;;;;;56.40;37.97;;;;;;;;;;5073928;28;20465;-79
2023/08/11 02:00:34;;;;;;;63.77;33.30;;;;;;;;;;5074839;28;20487;-78
2023/08/11 02:03:02;;;;;;;92.23;38.13;;;;;;;;;;5073555;28;20445;-80
2023/08/11 02:05:29;;;;;;;59.17;33.83;;;;;;;;;;5074164;28;20458;-79
2023/08/11 02:07:56;;;;;;;50.07;37.43;;;;;;;;;;5074021;28;20931;-79
2023/08/11 02:10:23;;;;;;;48.60;39.20;;;;;;;;;;5074057;28;20492;-81
2023/08/11 02:12:50;;;;;;;71.27;35.73;;;;;;;;;;5073896;28;20449;-79
2023/08/11 02:15:19;;;;;;;52.90;42.27;;;;;;;;;;5073646;28;20456;-80
2023/08/11 02:17:46;;;;;;;38.33;34.43;;;;;;;;;;5073801;28;20442;-80
2023/08/11 02:20:19;;;;;;;54.40;40.13;;;;;;;;;;5073636;28;20419;-79
2023/08/11 02:22:46;;;;;;;63.13;38.13;;;;;;;;;;5073434;28;20405;-80
2023/08/11 02:25:13;;;;;;;56.40;38.97;;;;;;;;;;5073921;28;20531;-77
2023/08/11 02:27:41;;;;;;;46.77;36.33;;;;;;;;;;5073891;28;20420;-79
2023/08/11 02:30:11;;;;;;;48.20;35.20;;;;;;;;;;5074051;28;21050;-79
2023/08/11 02:32:39;;;;;;;51.93;34.03;;;;;;;;;;5073930;28;20449;-79
2023/08/11 02:35:06;;;;;;;31.20;28.50;;;;;;;;;;5073389;28;20479;-79
2023/08/11 02:37:33;;;;;;;47.03;35.47;;;;;;;;;;5074146;28;20413;-79
2023/08/11 02:40:01;;;;;;;47.17;38.07;;;;;;;;;;5074180;28;20436;-78
2023/08/11 02:42:28;;;;;;;39.07;31.87;;;;;;;;;;5074293;28;20459;-78
2023/08/11 02:44:55;;;;;;;42.07;35.87;;;;;;;;;;5073731;28;20552;-79
2023/08/11 02:47:22;;;;;;;37.77;33.83;;;;;;;;;;5073705;28;20788;-80
2023/08/11 02:49:50;;;;;;;36.67;32.73;;;;;;;;;;5073768;28;20465;-80
2023/08/11 02:52:18;;;;;;;35.27;31.50;;;;;;;;;;5073954;28;20870;-78
2023/08/11 02:54:45;;;;;;;34.53;30.93;;;;;;;;;;5072673;28;20446;-80
2023/08/11 02:57:12;;;;;;;34.50;27.70;;;;;;;;;;5073366;28;20468;-79
2023/08/11 02:59:39;;;;;;;34.40;30.10;;;;;;;;;;5073969;28;20417;-79
2023/08/11 03:02:07;;;;;;;31.70;29.00;;;;;;;;;;5073652;28;20417;-80
2023/08/11 03:04:36;;;;;;;43.13;35.80;;;;;;;;;;5073216;28;20445;-81
2023/08/11 03:07:05;;;;;;;60.83;36.67;;;;;;;;;;5074065;28;20891;-80
2023/08/11 03:09:32;;;;;;;36.73;29.00;;;;;;;;;;5077236;28;20871;-79
2023/08/11 03:11:59;;;;;;;43.30;33.63;;;;;;;;;;5078253;28;20439;-79
2023/08/11 03:14:26;;;;;;;31.03;28.13;;;;;;;;;;5078034;28;20421;-79
2023/08/11 03:16:54;;;;;;;33.70;30.23;;;;;;;;;;5078752;28;20482;-78
2023/08/11 03:19:21;;;;;;;38.77;34.63;;;;;;;;;;5078715;28;20453;-79
2023/08/11 03:21:48;;;;;;;37.63;35.03;;;;;;;;;;5079139;28;20436;-78
2023/08/11 03:24:16;;;;;;;32.20;29.10;;;;;;;;;;5077992;28;20446;-79
2023/08/11 03:26:43;;;;;;;42.43;39.00;;;;;;;;;;5078230;28;20513;-79
2023/08/11 03:29:10;;;;;;;31.60;29.57;;;;;;;;;;5078116;28;20796;-80
2023/08/11 03:31:37;;;;;;;35.67;31.83;;;;;;;;;;5078202;28;20446;-79
2023/08/11 03:34:04;;;;;;;28.37;26.20;;;;;;;;;;5078051;28;20420;-80
2023/08/11 03:36:31;;;;;;;33.43;30.03;;;;;;;;;;5077005;28;20473;-79
2023/08/11 03:38:58;;;;;;;34.70;31.20;;;;;;;;;;5078202;28;20427;-79
2023/08/11 03:41:27;;;;;;;34.57;32.07;;;;;;;;;;5077904;28;20491;-80
2023/08/11 03:43:54;;;;;;;38.03;31.07;;;;;;;;;;5077096;28;20446;-78
2023/08/11 03:46:21;;;;;;;36.00;32.57;;;;;;;;;;5077914;28;20496;-79
2023/08/11 03:48:48;;;;;;;33.13;30.60;;;;;;;;;;5078319;28;20499;-79
2023/08/11 03:51:15;;;;;;;34.90;31.90;;;;;;;;;;5077611;28;20535;-79
2023/08/11 03:53:42;;;;;;;32.33;29.77;;;;;;;;;;5077111;28;20427;-79
2023/08/11 03:56:09;;;;;;;45.20;34.23;;;;;;;;;;5077226;28;20477;-80
2023/08/11 03:58:38;;;;;;;34.30;30.60;;;;;;;;;;5077254;28;20441;-80
2023/08/11 04:01:05;;;;;;;35.47;32.23;;;;;;;;;;5077327;28;20775;-80
2023/08/11 04:03:32;;;;;;;36.30;33.53;;;;;;;;;;5076734;28;20931;-80
2023/08/11 04:05:59;;;;;;;30.47;28.33;;;;;;;;;;5078166;28;20535;-81
2023/08/11 04:08:27;;;;;;;37.57;33.93;;;;;;;;;;5077544;28;20470;-80
2023/08/11 04:10:54;;;;;;;32.23;29.80;;;;;;;;;;5077664;28;20688;-79
2023/08/11 04:13:21;;;;;;;33.13;29.60;;;;;;;;;;5076177;28;20427;-78
2023/08/11 04:15:49;;;;;;;42.17;37.63;;;;;;;;;;5075583;28;20448;-78
2023/08/11 04:18:17;;;;;;;32.47;29.50;;;;;;;;;;5076155;28;20412;-77
2023/08/11 04:20:44;;;;;;;29.97;27.33;;;;;;;;;;5078261;28;20449;-76
2023/08/11 04:23:11;;;;;;;32.73;29.83;;;;;;;;;;5076348;28;20442;-77
2023/08/11 04:25:38;;;;;;;36.03;32.63;;;;;;;;;;5075138;28;20477;-77
2023/08/11 04:28:05;;;;;;;34.03;31.23;;;;;;;;;;5075764;28;20427;-77
2023/08/11 04:30:33;;;;;;;34.60;31.80;;;;;;;;;;5075176;28;20481;-77
2023/08/11 04:33:01;;;;;;;30.93;28.43;;;;;;;;;;5075659;28;21092;-77
2023/08/11 04:35:28;;;;;;;32.27;29.67;;;;;;;;;;5076230;28;20480;-77
2023/08/11 04:37:55;;;;;;;35.43;32.33;;;;;;;;;;5076053;28;20426;-77
2023/08/11 04:40:23;;;;;;;30.07;27.90;;;;;;;;;;5074764;28;20452;-79
2023/08/11 04:42:50;;;;;;;32.20;29.87;;;;;;;;;;5075568;28;20540;-76
2023/08/11 04:45:18;;;;;;;31.87;29.33;;;;;;;;;;5075898;28;20466;-79
2023/08/11 04:47:45;;;;;;;32.57;30.13;;;;;;;;;;5075484;28;20544;-78
2023/08/11 04:50:13;;;;;;;30.47;27.70;;;;;;;;;;5074643;28;20538;-78
2023/08/11 04:52:44;;;;;;;31.87;29.07;;;;;;;;;;5082647;28;20446;-77
2023/08/11 04:55:12;;;;;;;35.83;32.30;;;;;;;;;;5092446;28;20527;-78
2023/08/11 04:57:39;;;;;;;30.03;28.00;;;;;;;;;;5082183;28;20911;-78
2023/08/11 05:00:13;;;;;;;30.43;27.97;;;;;;;;;;5076840;28;20454;-78
2023/08/11 05:02:41;;;;;;;29.97;27.87;;;;;;;;;;5090544;28;20460;-78
2023/08/11 05:05:09;;;;;;;33.73;30.23;;;;;;;;;;5092209;28;20970;-78
2023/08/11 05:07:37;;;;;;;29.67;27.33;;;;;;;;;;5087991;28;20516;-79
2023/08/11 05:10:05;;;;;;;30.87;28.93;;;;;;;;;;5085105;28;20986;-78
2023/08/11 05:12:32;;;;;;;30.40;28.27;;;;;;;;;;5096317;28;20460;-78
2023/08/11 05:14:59;;;;;;;135.90;53.40;;;;;;;;;;5094131;28;20451;-78
2023/08/11 05:17:26;;;;;;;144.27;61.30;;;;;;;;;;5084208;28;20482;-77
2023/08/11 05:19:53;;;;;;;155.60;57.67;;;;;;;;;;5096692;28;20449;-77
2023/08/11 05:22:20;;;;;;;174.70;58.23;;;;;;;;;;5097383;28;20463;-78
2023/08/11 05:24:48;;;;;;;136.00;57.07;;;;;;;;;;5096714;28;20544;-78
2023/08/11 05:27:15;;;;;;;97.30;58.67;;;;;;;;;;5094798;28;20449;-77
2023/08/11 05:29:45;;;;;;;210.13;60.40;;;;;;;;;;5096479;28;20441;-77
2023/08/11 05:32:12;;;;;;;196.70;66.40;;;;;;;;;;5095175;28;20471;-77
2023/08/11 05:34:39;;;;;;;156.53;55.00;;;;;;;;;;5097293;28;20452;-78
2023/08/11 05:37:07;;;;;;;251.83;64.37;;;;;;;;;;5094316;28;20431;-78
2023/08/11 05:39:34;;;;;;;176.00;50.53;;;;;;;;;;5093795;28;20464;-77
2023/08/11 05:42:03;;;;;;;167.47;56.00;;;;;;;;;;5094167;28;20471;-78
2023/08/11 05:44:30;;;;;;;184.53;54.07;;;;;;;;;;5094161;28;21089;-77
2023/08/11 05:46:57;;;;;;;205.10;60.87;;;;;;;;;;5086452;28;20470;-78
2023/08/11 05:49:24;;;;;;;229.00;61.60;;;;;;;;;;5088836;28;20460;-78
2023/08/11 05:51:51;;;;;;;198.87;59.93;;;;;;;;;;5093769;28;20814;-76
2023/08/11 05:54:18;;;;;;;234.80;60.50;;;;;;;;;;5093260;28;20443;-78
2023/08/11 05:56:45;;;;;;;185.90;61.03;;;;;;;;;;5093016;28;20476;-78
2023/08/11 05:59:13;;;;;;;203.93;53.73;;;;;;;;;;5083007;28;20447;-78
2023/08/11 06:01:40;;;;;;;190.43;55.17;;;;;;;;;;5094317;28;20457;-78
2023/08/11 06:04:07;;;;;;;149.93;53.40;;;;;;;;;;5094414;28;20422;-78
2023/08/11 06:06:34;;;;;;;183.53;63.97;;;;;;;;;;5094759;28;20501;-77
2023/08/11 06:09:03;;;;;;;207.73;51.30;;;;;;;;;;5095924;28;20415;-78
2023/08/11 06:11:30;;;;;;;154.47;53.20;;;;;;;;;;5094471;28;20481;-78
2023/08/11 06:13:57;;;;;;;272.27;57.53;;;;;;;;;;5093758;28;20445;-79
2023/08/11 06:16:25;;;;;;;260.33;65.83;;;;;;;;;;5093035;28;20480;-76
2023/08/11 06:18:53;;;;;;;213.13;67.80;;;;;;;;;;5094407;28;20526;-78
2023/08/11 06:21:20;;;;;;;202.57;55.63;;;;;;;;;;5094702;28;20955;-78
2023/08/11 06:23:47;;;;;;;224.77;64.33;;;;;;;;;;5093909;28;20464;-77
2023/08/11 06:26:14;;;;;;;257.33;73.37;;;;;;;;;;5093781;28;20512;-79
2023/08/11 06:28:42;;;;;;;179.87;61.90;;;;;;;;;;5093589;28;20437;-78
2023/08/11 06:31:10;;;;;;;213.00;89.73;;;;;;;;;;5093235;28;20519;-78
2023/08/11 06:33:38;;;;;;;190.83;41.97;;;;;;;;;;5093127;28;20930;-77
2023/08/11 06:36:06;;;;;;;306.07;72.40;;;;;;;;;;5093656;28;20455;-77
2023/08/11 06:38:33;;;;;;;237.87;61.97;;;;;;;;;;5093657;28;20440;-77
2023/08/11 06:41:00;;;;;;;280.33;67.43;;;;;;;;;;5094250;28;20857;-78
2023/08/11 06:43:27;;;;;;;71.20;66.53;;;;;;;;;;5092753;28;20433;-78
2023/08/11 06:45:54;;;;;;;281.30;56.70;;;;;;;;;;5094177;28;20504;-78
2023/08/11 06:48:21;;;;;;;213.27;61.43;;;;;;;;;;5094075;28;20436;-79
2023/08/11 06:50:50;;;;;;;268.73;76.40;;;;;;;;;;5093686;28;20487;-78
2023/08/11 06:53:17;;;;;;;272.63;71.37;;;;;;;;;;5092873;28;20453;-78
2023/08/11 06:55:44;;;;;;;182.90;62.00;;;;;;;;;;5093990;28;20468;-78
2023/08/11 06:58:11;;;;;;;266.37;78.97;;;;;;;;;;5093217;28;20445;-78
2023/08/11 07:00:38;;;;;;;210.10;60.93;;;;;;;;;;5094616;28;20433;-77
2023/08/11 07:03:05;;;;;;;142.90;61.20;;;;;;;;;;5093222;28;20453;-78
2023/08/11 07:05:32;;;;;;;214.20;69.63;;;;;;;;;;5093869;28;20476;-78
2023/08/11 07:08:01;;;;;;;283.67;73.10;;;;;;;;;;5093955;28;20946;-77
2023/08/11 07:10:28;;;;;;;51.83;49.13;;;;;;;;;;5093973;28;20464;-78
2023/08/11 07:12:55;;;;;;;214.63;59.70;;;;;;;;;;5092901;28;20452;-81
2023/08/11 07:15:22;;;;;;;309.00;82.93;;;;;;;;;;5093686;28;21017;-77
2023/08/11 07:17:50;;;;;;;299.77;146.70;;;;;;;;;;5092877;28;20445;-81
2023/08/11 07:20:17;;;;;;;194.03;62.97;;;;;;;;;;5094567;28;20452;-80
2023/08/11 07:22:44;;;;;;;305.30;73.43;;;;;;;;;;5093252;28;20806;-81
2023/08/11 07:25:13;;;;;;;162.87;69.47;;;;;;;;;;5094466;28;20491;-82
2023/08/11 07:27:40;;;;;;;257.57;81.17;;;;;;;;;;5094668;28;20517;-81
2023/08/11 07:30:07;;;;;;;51.27;48.30;;;;;;;;;;5094017;28;20777;-81
2023/08/11 07:32:34;;;;;;;255.80;69.67;;;;;;;;;;5094135;28;20484;-81
2023/08/11 07:35:01;;;;;;;217.33;66.70;;;;;;;;;;5093213;28;20481;-80
2023/08/11 07:37:38;;;;;;;223.23;69.70;;;;;;;;;;5094115;28;20456;-80
2023/08/11 07:40:06;;;;;;;213.93;61.27;;;;;;;;;;5093849;28;20553;-82
2023/08/11 07:42:35;;;;;;;276.30;65.93;;;;;;;;;;5095128;28;20445;-79
2023/08/11 07:45:02;;;;;;;204.27;78.10;;;;;;;;;;5094026;28;20439;-79
2023/08/11 07:47:29;;;;;;;185.67;65.27;;;;;;;;;;5079381;28;20840;-78
2023/08/11 07:49:56;;;;;;;148.50;63.67;;;;;;;;;;5085871;28;20448;-79
2023/08/11 07:52:23;;;;;;;146.77;84.30;;;;;;;;;;5073881;28;20806;-79
2023/08/11 07:54:50;;;;;;;223.07;66.13;;;;;;;;;;5082669;28;20445;-80
2023/08/11 07:57:17;;;;;;;46.00;43.40;;;;;;;;;;5082012;28;20444;-79
2023/08/11 07:59:45;;;;;;;302.97;69.10;;;;;;;;;;5080185;28;20430;-78
2023/08/11 08:02:13;;;;;;;217.57;69.87;;;;;;;;;;5097824;28;20444;-78
2023/08/11 08:04:40;;;;;;;1626.80;324.50;;;;;;;;;;5077279;28;20445;-81
2023/08/11 08:07:07;;;;;;;322.77;81.67;;;;;;;;;;5095217;28;20467;-78
2023/08/11 08:09:34;;;;;;;212.10;62.50;;;;;;;;;;5097820;28;20469;-79
2023/08/11 08:12:02;;;;;;;917.57;165.83;;;;;;;;;;5097778;28;20480;-78
2023/08/11 08:14:29;;;;;;;224.43;57.47;;;;;;;;;;5096978;28;20457;-78
2023/08/11 08:16:58;;;;;;;197.50;63.97;;;;;;;;;;5097598;28;20503;-79
2023/08/11 08:19:25;;;;;;;281.93;73.40;;;;;;;;;;5096614;28;20440;-78
2023/08/11 08:21:52;;;;;;;152.50;62.90;;;;;;;;;;5096880;28;20468;-79
2023/08/11 08:24:19;;;;;;;148.63;60.27;;;;;;;;;;5096496;28;20452;-80
2023/08/11 08:26:47;;;;;;;235.30;56.90;;;;;;;;;;5097700;28;21035;-80
2023/08/11 08:29:15;;;;;;;203.47;69.73;;;;;;;;;;5096574;28;20860;-79
2023/08/11 08:31:42;;;;;;;192.43;65.37;;;;;;;;;;5096927;28;20534;-78
2023/08/11 08:34:10;;;;;;;236.60;63.53;;;;;;;;;;5096770;28;20441;-79
2023/08/11 08:36:37;;;;;;;134.67;56.73;;;;;;;;;;5095790;28;20488;-79
2023/08/11 08:39:05;;;;;;;137.77;54.47;;;;;;;;;;5098926;28;20449;-87
2023/08/11 08:41:32;;;;;;;148.30;56.07;;;;;;;;;;5098650;28;20445;-79
2023/08/11 08:44:01;;;;;;;203.40;63.43;;;;;;;;;;5096551;28;20923;-81
2023/08/11 08:46:30;;;;;;;175.57;59.17;;;;;;;;;;5096972;28;20492;-80
2023/08/11 08:49:02;;;;;;;261.57;62.23;;;;;;;;;;5097216;28;20445;-81
2023/08/11 08:51:31;;;;;;;214.27;70.27;;;;;;;;;;5077444;28;20466;-80
2023/08/11 08:53:58;;;;;;;199.67;77.50;;;;;;;;;;5095340;28;20905;-81
2023/08/11 08:56:32;;;;;;;277.40;69.90;;;;;;;;;;5097018;28;20825;-81
2023/08/11 08:58:59;;;;;;;194.70;61.90;;;;;;;;;;5095717;28;20469;-81
2023/08/11 09:01:26;;;;;;;136.40;52.93;;;;;;;;;;5084409;28;20438;-80
2023/08/11 09:03:54;;;;;;;121.57;49.63;;;;;;;;;;5077091;28;20950;-80
2023/08/11 09:06:21;;;;;;;687.67;146.33;;;;;;;;;;5094371;28;20476;-79
2023/08/11 09:21:33;;;;;;;136.07;57.20;;;;;;;;;;5127005;27;20543;-79
2023/08/11 09:24:01;;;;;;;117.20;40.50;;;;;;;;;;5111441;28;20443;-77
2023/08/11 09:26:28;;;;;;;123.97;41.13;;;;;;;;;;5111322;28;20440;-78
2023/08/11 09:28:56;;;;;;;120.43;50.57;;;;;;;;;;5110192;27;21008;-78
2023/08/11 09:31:23;;;;;;;154.03;71.60;;;;;;;;;;5111470;28;20431;-84
2023/08/11 09:33:50;;;;;;;155.07;62.80;;;;;;;;;;5110595;28;20555;-80
2023/08/11 09:36:18;;;;;;;187.70;64.27;;;;;;;;;;5110851;28;20472;-80
2023/08/11 09:38:46;;;;;;;311.77;80.97;;;;;;;;;;5110817;28;20436;-79
2023/08/11 09:41:14;;;;;;;209.70;57.10;;;;;;;;;;5109574;27;20884;-79
2023/08/11 09:43:46;;;;;;;141.47;59.20;;;;;;;;;;5112652;28;20462;-80
2023/08/11 09:46:13;;;;;;;303.37;81.83;;;;;;;;;;5114257;28;20444;-81
2023/08/11 09:48:40;;;;;;;126.00;48.40;;;;;;;;;;5114048;28;20537;-80
2023/08/11 09:51:10;;;;;;;116.97;46.23;;;;;;;;;;5113482;28;20483;-81
2023/08/11 09:53:41;;;;;;;229.30;65.60;;;;;;;;;;5113701;28;20487;-81
2023/08/11 09:56:11;;;;;;;149.17;47.07;;;;;;;;;;5113224;27;20460;-81
2023/08/11 09:58:40;;;;;;;402.90;76.87;;;;;;;;;;5114895;28;20428;-81
2023/08/11 10:01:09;;;;;;;292.80;92.33;;;;;;;;;;5112756;28;20436;-79
2023/08/11 10:03:41;;;;;;;142.73;49.20;;;;;;;;;;5115212;28;20490;-80
2023/08/11 10:06:09;;;;;;;161.73;51.87;;;;;;;;;;5115798;28;20908;-80
2023/08/11 10:08:37;;;;;;;166.87;58.70;;;;;;;;;;5112603;28;20460;-80
2023/08/11 10:11:05;;;;;;;110.73;48.73;;;;;;;;;;5112977;28;20479;-81
2023/08/11 10:13:34;;;;;;;188.73;63.03;;;;;;;;;;5112784;28;20452;-80
2023/08/11 10:16:01;;;;;;;34.07;32.10;;;;;;;;;;5112397;28;20441;-81
2023/08/11 10:18:28;;;;;;;164.90;57.60;;;;;;;;;;5112339;28;20937;-80
2023/08/11 10:20:56;;;;;;;125.00;46.60;;;;;;;;;;5107252;28;20510;-81
2023/08/11 10:23:24;;;;;;;151.37;47.10;;;;;;;;;;5098526;28;20877;-80
2023/08/11 10:25:51;;;;;;;174.40;52.03;;;;;;;;;;5097942;28;20444;-80
2023/08/11 10:28:18;;;;;;;457.27;103.17;;;;;;;;;;5098780;28;20472;-81
2023/08/11 10:30:55;;;;;;;156.83;57.90;;;;;;;;;;5098076;28;20476;-80
2023/08/11 10:33:22;;;;;;;215.20;69.87;;;;;;;;;;5099136;28;20462;-81
2023/08/11 10:35:51;;;;;;;305.77;69.83;;;;;;;;;;5097412;28;20464;-82
2023/08/11 10:38:26;;;;;;;142.33;64.30;;;;;;;;;;5098512;28;20448;-81
2023/08/11 10:40:58;;;;;;;133.80;51.37;;;;;;;;;;5097944;28;20432;-80
2023/08/11 10:43:30;;;;;;;129.90;41.37;;;;;;;;;;5097814;28;20445;-80
2023/08/11 10:46:14;;;;;;;137.23;45.33;;;;;;;;;;5099236;28;20473;-80
2023/08/11 10:48:41;;;;;;;160.83;50.53;;;;;;;;;;5098578;28;20890;-81
2023/08/11 10:51:23;;;;;;;201.00;57.47;;;;;;;;;;5098273;28;20488;-80
2023/08/11 10:53:50;;;;;;;100.03;60.63;;;;;;;;;;5098685;28;20460;-80
2023/08/11 10:56:27;;;;;;;307.47;74.10;;;;;;;;;;5095864;28;20923;-79
2023/08/11 10:59:04;;;;;;;359.57;85.67;;;;;;;;;;5098756;28;20429;-80
2023/08/11 11:01:33;;;;;;;929.60;238.97;;;;;;;;;;5098688;28;20514;-81
2023/08/11 11:04:01;;;;;;;173.67;48.27;;;;;;;;;;5097082;28;20448;-79
2023/08/11 11:06:28;;;;;;;240.33;75.13;;;;;;;;;;5097599;28;20498;-80
2023/08/11 11:08:55;;;;;;;163.80;52.80;;;;;;;;;;5097381;28;20929;-80
2023/08/11 11:11:23;;;;;;;208.87;58.70;;;;;;;;;;5097253;28;20567;-80
2023/08/11 11:13:51;;;;;;;167.87;48.67;;;;;;;;;;5096895;28;20542;-79
2023/08/11 11:16:18;;;;;;;165.60;52.60;;;;;;;;;;5098367;28;20471;-79
2023/08/11 11:18:48;;;;;;;201.50;49.30;;;;;;;;;;5099629;28;20445;-79
2023/08/11 11:21:17;;;;;;;23.20;21.90;;;;;;;;;;5098657;28;20453;-80
2023/08/11 11:23:47;;;;;;;23.47;22.07;;;;;;;;;;5102115;28;20526;-79
2023/08/11 11:26:16;;;;;;;23.83;22.37;;;;;;;;;;5100316;28;20452;-83
2023/08/11 11:28:43;;;;;;;23.70;21.97;;;;;;;;;;5103706;28;20494;-81
2023/08/11 11:31:10;;;;;;;23.83;22.33;;;;;;;;;;5101366;28;20899;-81
2023/08/11 11:33:37;;;;;;;23.27;21.87;;;;;;;;;;5100119;28;21159;-80
2023/08/11 11:36:06;;;;;;;23.97;22.37;;;;;;;;;;5099397;28;20469;-81
2023/08/11 11:38:33;;;;;;;23.90;22.10;;;;;;;;;;5097551;28;20494;-81
2023/08/11 11:41:00;;;;;;;24.67;23.07;;;;;;;;;;5096910;28;20773;-81
2023/08/11 11:43:29;;;;;;;24.10;22.50;;;;;;;;;;5097506;28;20852;-80
2023/08/11 11:45:58;;;;;;;23.53;22.13;;;;;;;;;;5097516;28;20457;-80
2023/08/11 11:48:25;;;;;;;23.90;22.30;;;;;;;;;;5097594;28;20494;-80
2023/08/11 11:50:52;;;;;;;24.77;23.17;;;;;;;;;;5096479;28;20473;-80
2023/08/11 11:53:23;;;;;;;25.20;22.97;;;;;;;;;;5095983;28;20988;-81
2023/08/11 11:55:53;;;;;;;23.80;22.40;;;;;;;;;;5098129;28;20423;-80
2023/08/11 11:58:20;;;;;;;23.13;21.83;;;;;;;;;;5098004;28;21275;-81
2023/08/11 12:00:47;;;;;;;24.43;22.87;;;;;;;;;;5097524;28;20419;-80
2023/08/11 12:03:15;;;;;;;23.37;22.00;;;;;;;;;;5097570;28;20495;-81
2023/08/11 12:05:42;;;;;;;24.37;22.97;;;;;;;;;;5097442;28;20456;-81
2023/08/11 12:08:20;;;;;;;24.77;23.03;;;;;;;;;;5096578;28;20456;-81
2023/08/11 12:10:49;;;;;;;24.40;23.00;;;;;;;;;;5096997;28;20472;-80
2023/08/11 12:13:16;;;;;;;23.63;22.20;;;;;;;;;;5098046;28;20492;-87
2023/08/11 12:15:43;;;;;;;25.00;23.40;;;;;;;;;;5097094;28;20809;-82
2023/08/11 12:18:10;;;;;;;24.00;22.60;;;;;;;;;;5097739;28;20408;-82
2023/08/11 12:20:37;;;;;;;24.00;22.60;;;;;;;;;;5097084;28;20427;-82
2023/08/11 12:23:04;;;;;;;23.87;22.27;;;;;;;;;;5096270;28;20494;-81
2023/08/11 12:25:31;;;;;;;24.10;22.43;;;;;;;;;;5096462;28;20433;-81
2023/08/11 12:28:01;;;;;;;23.50;21.97;;;;;;;;;;5097715;28;20510;-81
2023/08/11 12:30:28;;;;;;;23.77;22.27;;;;;;;;;;5096373;28;20512;-81
2023/08/11 12:32:55;;;;;;;21.97;20.67;;;;;;;;;;5096718;28;20476;-81
2023/08/11 12:35:23;;;;;;;23.20;21.80;;;;;;;;;;5097428;28;20445;-81
2023/08/11 12:37:51;;;;;;;24.07;22.57;;;;;;;;;;5098104;28;20438;-81
2023/08/11 12:40:18;;;;;;;23.90;22.50;;;;;;;;;;5097590;28;20481;-82
2023/08/11 12:42:45;;;;;;;23.27;21.87;;;;;;;;;;5096265;28;20537;-82
2023/08/11 12:45:14;;;;;;;24.70;22.90;;;;;;;;;;5096837;28;20429;-81
2023/08/11 12:47:41;;;;;;;25.03;23.30;;;;;;;;;;5096411;28;20445;-81
2023/08/11 12:50:09;;;;;;;23.67;22.27;;;;;;;;;;5096623;28;20569;-80
2023/08/11 12:52:36;;;;;;;23.27;21.87;;;;;;;;;;5096115;28;20493;-82
2023/08/11 12:55:04;;;;;;;23.90;22.57;;;;;;;;;;5096850;28;20434;-82
2023/08/11 12:57:31;;;;;;;24.60;22.97;;;;;;;;;;5096488;28;21035;-81
2023/08/11 12:59:58;;;;;;;24.07;22.57;;;;;;;;;;5095965;28;20427;-81
2023/08/11 13:02:26;;;;;;;24.00;22.50;;;;;;;;;;5096113;28;20863;-81
2023/08/11 13:04:53;;;;;;;23.83;22.40;;;;;;;;;;5097342;28;20452;-81
2023/08/11 13:07:21;;;;;;;27.23;25.40;;;;;;;;;;5096877;28;20448;-81
2023/08/11 13:09:48;;;;;;;23.87;22.40;;;;;;;;;;5096940;28;20963;-81
2023/08/11 13:12:15;;;;;;;23.53;22.13;;;;;;;;;;5096797;28;20487;-82
2023/08/11 13:14:42;;;;;;;24.83;22.63;;;;;;;;;;5095457;28;20480;-81
2023/08/11 13:17:10;;;;;;;24.57;22.83;;;;;;;;;;5096357;28;20433;-81
2023/08/11 13:19:39;;;;;;;23.30;21.80;;;;;;;;;;5096366;28;21033;-79
2023/08/11 13:22:07;;;;;;;23.93;22.33;;;;;;;;;;5095841;28;20468;-81
2023/08/11 13:24:34;;;;;;;24.10;22.60;;;;;;;;;;5096853;28;20475;-81
2023/08/11 13:27:02;;;;;;;24.10;22.60;;;;;;;;;;5097073;28;20503;-81
2023/08/11 13:29:29;;;;;;;23.80;22.20;;;;;;;;;;5096895;28;20419;-82
2023/08/11 13:31:56;;;;;;;24.17;22.67;;;;;;;;;;5095540;28;21045;-81
2023/08/11 13:34:23;;;;;;;23.87;22.27;;;;;;;;;;5097056;28;20433;-84
2023/08/11 13:36:51;;;;;;;23.87;22.07;;;;;;;;;;5095058;28;20472;-81
2023/08/11 13:39:19;;;;;;;24.30;22.80;;;;;;;;;;5095239;28;20449;-80
2023/08/11 13:41:47;;;;;;;23.90;22.40;;;;;;;;;;5093996;28;20495;-81
2023/08/11 13:44:14;;;;;;;24.20;22.70;;;;;;;;;;5095579;28;20449;-80
2023/08/11 13:46:41;;;;;;;22.70;21.30;;;;;;;;;;5094910;28;20452;-80
2023/08/11 13:49:08;;;;;;;23.60;22.20;;;;;;;;;;5094832;28;20441;-80
2023/08/11 13:51:36;;;;;;;24.80;23.20;;;;;;;;;;5093622;28;20851;-80
2023/08/11 13:54:05;;;;;;;25.93;24.23;;;;;;;;;;5094769;28;20494;-80
2023/08/11 13:56:33;;;;;;;24.50;22.97;;;;;;;;;;5096824;28;20957;-80
2023/08/11 13:59:00;;;;;;;24.60;23.07;;;;;;;;;;5099353;28;20441;-79
2023/08/11 14:01:27;;;;;;;24.50;22.77;;;;;;;;;;5098390;28;20473;-80
2023/08/11 14:03:54;;;;;;;26.20;24.50;;;;;;;;;;5097344;28;20476;-81
2023/08/11 14:06:21;;;;;;;24.70;23.30;;;;;;;;;;5098576;28;20486;-80
2023/08/11 14:08:48;;;;;;;24.80;23.30;;;;;;;;;;5098163;28;20447;-81
2023/08/11 14:11:22;;;;;;;24.40;23.00;;;;;;;;;;5098021;28;20477;-80
2023/08/11 14:13:49;;;;;;;26.43;24.80;;;;;;;;;;5098829;28;20476;-80
2023/08/11 14:16:16;;;;;;;24.60;23.20;;;;;;;;;;5098078;28;20476;-80
2023/08/11 14:18:43;;;;;;;24.50;23.10;;;;;;;;;;5098661;28;20452;-80
2023/08/11 14:21:12;;;;;;;24.73;23.10;;;;;;;;;;5097977;28;20502;-87
2023/08/11 14:23:39;;;;;;;23.57;21.90;;;;;;;;;;5098873;28;20469;-81
2023/08/11 14:26:06;;;;;;;24.90;23.20;;;;;;;;;;5098510;28;20465;-85
2023/08/11 14:28:35;;;;;;;25.00;23.50;;;;;;;;;;5096720;28;20464;-83